createdAt,value
2023-03-12T00:00:57.785Z,101004.06
2023-03-12T00:03:27.568Z,101009.50
2023-03-12T00:06:03.865Z,101014.78
2023-03-12T00:08:39.048Z,101012.91
2023-03-12T00:11:18.923Z,101018.28
2023-03-12T00:13:56.635Z,101016.13
2023-03-12T00:16:31.324Z,101018.81
2023-03-12T00:19:03.310Z,101016.66
2023-03-12T00:21:33.570Z,101017.50
2023-03-12T00:24:03.525Z,101019.59
2023-03-12T00:26:37.029Z,101027.00
2023-03-12T00:29:07.262Z,101027.94
2023-03-12T00:31:38.520Z,101030.84
2023-03-12T00:34:17.583Z,101026.75
2023-03-12T00:36:48.919Z,101033.66
2023-03-12T00:39:18.832Z,101037.94
2023-03-12T00:41:48.698Z,101036.94
2023-03-12T00:44:19.874Z,101031.78
2023-03-12T00:46:49.672Z,101043.22
2023-03-12T00:49:20.159Z,101031.56
2023-03-12T00:51:51.711Z,101033.88
2023-03-12T00:54:22.982Z,101037.47
2023-03-12T00:56:53.016Z,101033.97
2023-03-12T00:59:22.717Z,101031.31
2023-03-12T01:01:53.089Z,101026.19
2023-03-12T01:04:23.198Z,101030.81
2023-03-12T01:06:53.471Z,101043.03
2023-03-12T01:09:24.718Z,101051.81
2023-03-12T01:11:54.969Z,101047.75
2023-03-12T01:14:25.399Z,101049.50
2023-03-12T01:16:56.095Z,101044.50
2023-03-12T01:19:26.641Z,101044.00
2023-03-12T01:21:56.980Z,101031.50
2023-03-12T01:24:26.790Z,101041.50
2023-03-12T01:26:57.963Z,101040.97
2023-03-12T01:29:27.910Z,101038.66
2023-03-12T01:31:57.594Z,101038.66
2023-03-12T01:34:28.040Z,101043.66
2023-03-12T01:36:57.779Z,101041.16
2023-03-12T01:39:29.006Z,101042.25
2023-03-12T01:41:58.964Z,101042.06
2023-03-12T01:44:30.124Z,101043.66
2023-03-12T01:47:01.023Z,101043.31
2023-03-12T01:49:34.751Z,101042.78
2023-03-12T01:52:38.181Z,101045.13
2023-03-12T01:55:19.152Z,101042.97
2023-03-12T01:57:58.196Z,101054.94
2023-03-12T02:00:30.817Z,101052.63
2023-03-12T02:03:09.045Z,101058.84
2023-03-12T02:05:58.157Z,101046.72
2023-03-12T02:08:30.867Z,101052.78
2023-03-12T02:11:01.099Z,101051.88
2023-03-12T02:13:32.012Z,101044.75
2023-03-12T02:16:02.167Z,101049.19
2023-03-12T02:18:32.866Z,101056.66
2023-03-12T02:21:30.672Z,101057.34
2023-03-12T02:24:20.601Z,101045.38
2023-03-12T02:26:50.967Z,101044.66
2023-03-12T02:29:21.808Z,101043.97
2023-03-12T02:31:55.649Z,101043.97
2023-03-12T02:34:25.967Z,101051.13
2023-03-12T02:36:57.659Z,101055.00
2023-03-12T02:39:29.656Z,101051.28
2023-03-12T02:42:03.261Z,101056.44
2023-03-12T02:44:40.619Z,101055.72
2023-03-12T02:47:10.914Z,101057.63
2023-03-12T02:49:41.815Z,101058.50
2023-03-12T02:52:14.432Z,101068.84
2023-03-12T02:54:45.118Z,101067.25
2023-03-12T02:57:15.991Z,101065.06
2023-03-12T02:59:49.218Z,101064.03
2023-03-12T03:02:19.518Z,101076.69
2023-03-12T03:04:49.387Z,101074.41
2023-03-12T03:07:22.952Z,101071.34
2023-03-12T03:09:53.135Z,101069.03
2023-03-12T03:12:24.030Z,101062.94
2023-03-12T03:14:54.623Z,101055.06
2023-03-12T03:17:25.669Z,101056.88
2023-03-12T03:19:56.160Z,101048.13
2023-03-12T03:22:25.972Z,101043.19
2023-03-12T03:24:56.477Z,101039.25
2023-03-12T03:27:26.576Z,101041.53
2023-03-12T03:29:57.026Z,101046.34
2023-03-12T03:32:27.856Z,101047.56
2023-03-12T03:34:58.217Z,101040.94
2023-03-12T03:37:28.181Z,101028.28
2023-03-12T03:39:58.679Z,101030.03
2023-03-12T03:42:29.514Z,101024.88
2023-03-12T03:45:00.319Z,101017.41
2023-03-12T03:47:30.497Z,101016.34
2023-03-12T03:50:00.886Z,101011.38
2023-03-12T03:52:31.452Z,101009.91
2023-03-12T03:55:02.117Z,100999.06
2023-03-12T03:57:33.127Z,101001.53
2023-03-12T04:00:04.072Z,101005.50
2023-03-12T04:02:42.958Z,100993.53
2023-03-12T04:05:14.464Z,101000.34
2023-03-12T04:07:44.572Z,101000.50
2023-03-12T04:10:16.155Z,101005.56
2023-03-12T04:12:46.459Z,101008.59
2023-03-12T04:15:16.171Z,101005.78
2023-03-12T04:17:46.683Z,100998.69
2023-03-12T04:20:16.617Z,100993.69
2023-03-12T04:22:46.222Z,100992.25
2023-03-12T04:25:17.693Z,100993.69
2023-03-12T04:27:47.641Z,100988.47
2023-03-12T04:30:17.765Z,100994.19
2023-03-12T04:32:48.781Z,100983.50
2023-03-12T04:35:18.756Z,100987.97
2023-03-12T04:37:49.647Z,100994.34
2023-03-12T04:40:21.158Z,100991.16
2023-03-12T04:42:52.630Z,100992.03
2023-03-12T04:45:23.089Z,100992.97
2023-03-12T04:47:55.120Z,100995.28
2023-03-12T04:50:28.312Z,100972.09
2023-03-12T04:53:00.679Z,100978.19
2023-03-12T04:55:30.863Z,100973.72
2023-03-12T04:58:01.224Z,100979.97
2023-03-12T05:00:31.844Z,100981.31
2023-03-12T05:03:02.815Z,100985.72
2023-03-12T05:05:32.915Z,100981.91
2023-03-12T05:08:04.233Z,100984.91
2023-03-12T05:10:35.637Z,100980.66
2023-03-12T05:13:06.009Z,100979.88
2023-03-12T05:15:41.753Z,100985.47
2023-03-12T05:18:16.835Z,100982.28
2023-03-12T05:20:46.626Z,100975.72
2023-03-12T05:23:16.459Z,100969.41
2023-03-12T05:25:46.995Z,100969.22
2023-03-12T05:28:17.350Z,100960.34
2023-03-12T05:30:48.227Z,100964.25
2023-03-12T05:33:18.425Z,100967.09
2023-03-12T05:35:48.881Z,100965.16
2023-03-12T05:38:19.559Z,100968.16
2023-03-12T05:40:56.044Z,100961.75
2023-03-12T05:43:27.386Z,100959.44
2023-03-12T05:46:07.290Z,100962.69
2023-03-12T05:48:37.820Z,100962.19
2023-03-12T05:51:08.462Z,100959.06
2023-03-12T05:53:39.712Z,100953.16
2023-03-12T05:56:14.706Z,100963.91
2023-03-12T05:58:51.246Z,100962.75
2023-03-12T06:01:25.859Z,100961.34
2023-03-12T06:03:58.367Z,100958.91
2023-03-12T06:06:31.480Z,100953.09
2023-03-12T06:09:01.463Z,100948.78
2023-03-12T06:11:33.357Z,100952.53
2023-03-12T06:14:03.622Z,100950.63
2023-03-12T06:16:35.364Z,100957.59
2023-03-12T06:19:06.965Z,100960.00
2023-03-12T06:21:37.981Z,100954.25
2023-03-12T06:24:10.492Z,100948.16
2023-03-12T06:26:57.925Z,100948.69
2023-03-12T06:29:28.784Z,100946.16
2023-03-12T06:31:59.292Z,100941.47
2023-03-12T06:34:29.664Z,100945.34
2023-03-12T06:37:00.174Z,100943.56
2023-03-12T06:39:31.421Z,100939.13
2023-03-12T06:42:01.810Z,100934.53
2023-03-12T06:44:31.952Z,100936.41
2023-03-12T06:47:02.573Z,100935.16
2023-03-12T06:49:34.570Z,100937.44
2023-03-12T06:52:05.253Z,100937.66
2023-03-12T06:54:35.298Z,100932.50
2023-03-12T06:57:06.132Z,100916.41
2023-03-12T06:59:36.133Z,100913.88
2023-03-12T07:02:06.739Z,100927.34
2023-03-12T07:04:36.847Z,100915.97
2023-03-12T07:07:09.789Z,100912.97
2023-03-12T07:09:48.359Z,100915.50
2023-03-12T07:12:20.498Z,100923.50
2023-03-12T07:14:50.412Z,100923.31
2023-03-12T07:17:20.927Z,100925.84
2023-03-12T07:19:50.981Z,100933.50
2023-03-12T07:22:21.229Z,100933.72
2023-03-12T07:24:52.497Z,100934.44
2023-03-12T07:27:22.716Z,100936.56
2023-03-12T07:29:53.979Z,100931.75
2023-03-12T07:32:24.328Z,100938.31
2023-03-12T07:34:54.302Z,100933.63
2023-03-12T07:37:24.922Z,100944.38
2023-03-12T07:39:56.114Z,100947.72
2023-03-12T07:42:26.777Z,100946.09
2023-03-12T07:44:59.975Z,100946.09
2023-03-12T07:47:30.495Z,100950.28
2023-03-12T07:50:02.277Z,100956.78
2023-03-12T07:52:34.115Z,100949.72
2023-03-12T07:55:04.244Z,100944.97
2023-03-12T07:57:34.048Z,100955.47
2023-03-12T08:00:08.425Z,100954.13
2023-03-12T08:02:46.416Z,100959.03
2023-03-12T08:05:17.569Z,100957.97
2023-03-12T08:07:47.860Z,100960.31
2023-03-12T08:10:18.335Z,100963.69
2023-03-12T08:12:49.184Z,100963.84
2023-03-12T08:15:19.951Z,100973.25
2023-03-12T08:17:50.032Z,100970.69
2023-03-12T08:20:20.409Z,100975.81
2023-03-12T08:22:50.684Z,100974.84
2023-03-12T08:25:22.273Z,100976.81
2023-03-12T08:27:53.666Z,100977.50
2023-03-12T08:30:24.069Z,100984.09
2023-03-12T08:32:53.970Z,100985.59
2023-03-12T08:35:24.631Z,100988.75
2023-03-12T08:37:54.474Z,100994.84
2023-03-12T08:40:27.192Z,100993.66
2023-03-12T08:42:57.232Z,100996.38
2023-03-12T08:45:26.885Z,100996.75
2023-03-12T08:47:59.120Z,101001.38
2023-03-12T08:50:30.648Z,101010.16
2023-03-12T08:53:01.401Z,101008.69
2023-03-12T08:55:31.211Z,101013.22
2023-03-12T08:58:00.788Z,101025.25
2023-03-12T09:00:31.571Z,101021.84
2023-03-12T09:03:01.522Z,101017.50
2023-03-12T09:05:32.525Z,101026.53
2023-03-12T09:08:02.842Z,101021.09
2023-03-12T09:10:33.794Z,101031.94
2023-03-12T09:13:04.926Z,101030.03
2023-03-12T09:15:35.875Z,101032.31
2023-03-12T09:18:05.871Z,101037.66
2023-03-12T09:20:36.245Z,101038.13
2023-03-12T09:23:07.778Z,101028.81
2023-03-12T09:25:38.262Z,101031.19
2023-03-12T09:28:08.030Z,101037.53
2023-03-12T09:30:38.553Z,101032.84
2023-03-12T09:33:08.518Z,101037.75
2023-03-12T09:35:38.804Z,101039.50
2023-03-12T09:38:15.098Z,101041.97
2023-03-12T09:40:48.605Z,101044.59
2023-03-12T09:43:24.787Z,101052.38
2023-03-12T09:45:56.254Z,101055.56
2023-03-12T09:48:37.641Z,101062.13
2023-03-12T09:51:15.646Z,101061.19
2023-03-12T09:53:53.274Z,101069.94
2023-03-12T09:56:24.688Z,101065.50
2023-03-12T09:58:55.775Z,101069.50
2023-03-12T10:01:52.533Z,101069.22
2023-03-12T10:04:57.986Z,101074.88
2023-03-12T10:07:42.084Z,101066.59
2023-03-12T10:10:18.611Z,101071.38
2023-03-12T10:13:09.498Z,101060.03
2023-03-12T10:16:04.484Z,101065.69
2023-03-12T10:18:39.052Z,101059.34
2023-03-12T10:21:38.820Z,101058.09
2023-03-12T10:24:09.771Z,101063.25
2023-03-12T10:26:55.725Z,101061.56
2023-03-12T10:29:32.428Z,101070.69
2023-03-12T10:32:08.432Z,101068.78
2023-03-12T10:35:02.053Z,101067.44
2023-03-12T10:37:41.285Z,101060.38
2023-03-12T10:40:38.050Z,101066.81
2023-03-12T10:43:09.486Z,101067.13
2023-03-12T10:46:30.242Z,101066.03
2023-03-12T10:49:31.009Z,101063.63
2023-03-12T10:52:08.046Z,101067.56
2023-03-12T10:54:41.899Z,101063.56
2023-03-12T10:57:13.633Z,101054.75
2023-03-12T10:59:44.905Z,101061.75
2023-03-12T11:02:26.652Z,101061.81
2023-03-12T11:04:57.154Z,101069.53
2023-03-12T11:07:34.698Z,101064.66
2023-03-12T11:10:10.910Z,101074.31
2023-03-12T11:12:42.060Z,101067.09
2023-03-12T11:15:24.930Z,101063.41
2023-03-12T11:18:04.783Z,101061.63
2023-03-12T11:20:34.966Z,101073.81
2023-03-12T11:23:21.529Z,101062.44
2023-03-12T11:26:04.087Z,101072.84
2023-03-12T11:28:40.036Z,101072.72
2023-03-12T11:31:38.460Z,101070.28
2023-03-12T11:34:17.066Z,101077.03
2023-03-12T11:37:07.962Z,101081.84
2023-03-12T11:39:50.834Z,101082.69
2023-03-12T11:42:21.817Z,101075.94
2023-03-12T11:45:10.121Z,101088.16
2023-03-12T11:47:58.714Z,101087.31
2023-03-12T11:50:50.192Z,101087.31
2023-03-12T11:53:32.204Z,101088.56
2023-03-12T11:56:26.860Z,101092.19
2023-03-12T11:59:19.966Z,101086.38
2023-03-12T12:02:10.484Z,101096.47
2023-03-12T12:05:00.046Z,101101.69
2023-03-12T12:08:00.204Z,101106.91
2023-03-12T12:10:42.478Z,101105.44
2023-03-12T12:13:29.928Z,101107.28
2023-03-12T12:16:27.484Z,101109.97
2023-03-12T12:19:06.978Z,101107.16
2023-03-12T12:22:01.574Z,101102.44
2023-03-12T12:24:56.087Z,101107.66
2023-03-12T12:27:36.375Z,101106.53
2023-03-12T12:30:15.216Z,101108.50
2023-03-12T12:32:57.014Z,101100.09
2023-03-12T12:35:42.895Z,101103.66
2023-03-12T12:38:19.370Z,101099.59
2023-03-12T12:41:17.753Z,101103.13
2023-03-12T12:43:53.620Z,101108.19
2023-03-12T12:46:43.256Z,101106.53
2023-03-12T12:49:32.020Z,101108.97
2023-03-12T12:52:08.750Z,101111.75
2023-03-12T12:54:56.526Z,101114.06
2023-03-12T12:57:34.380Z,101119.69
2023-03-12T13:00:16.531Z,101114.06
2023-03-12T13:02:49.233Z,101119.00
2023-03-12T13:05:42.236Z,101122.31
2023-03-12T13:08:38.035Z,101119.66
2023-03-12T13:11:19.767Z,101128.50
2023-03-12T13:14:12.034Z,101130.00
2023-03-12T13:16:49.042Z,101127.47
2023-03-12T13:19:19.269Z,101129.41
2023-03-12T13:21:48.973Z,101139.00
2023-03-12T13:24:24.800Z,101140.31
2023-03-12T13:27:22.481Z,101139.91
2023-03-12T13:29:58.172Z,101150.94
2023-03-12T13:32:37.673Z,101140.50
2023-03-12T13:35:19.030Z,101139.31
2023-03-12T13:37:49.174Z,101128.28
2023-03-12T13:40:30.796Z,101121.56
2023-03-12T13:43:10.116Z,101120.13
2023-03-12T13:45:43.758Z,101120.91
2023-03-12T13:48:20.911Z,101125.47
2023-03-12T13:51:00.346Z,101123.25
2023-03-12T13:53:42.128Z,101123.47
2023-03-12T13:56:19.013Z,101125.13
2023-03-12T13:58:56.490Z,101129.00
2023-03-12T14:01:31.814Z,101118.91
2023-03-12T14:04:07.086Z,101110.47
2023-03-12T14:06:59.796Z,101106.94
2023-03-12T14:09:58.210Z,101109.81
2023-03-12T14:12:56.378Z,101102.03
2023-03-12T14:15:55.229Z,101100.38
2023-03-12T14:18:29.729Z,101102.72
2023-03-12T14:21:11.390Z,101101.25
2023-03-12T14:23:47.621Z,101100.69
2023-03-12T14:26:22.879Z,101097.22
2023-03-12T14:29:28.415Z,101084.84
2023-03-12T14:32:03.679Z,101083.03
2023-03-12T14:35:00.944Z,101077.97
2023-03-12T14:37:38.595Z,101076.53
2023-03-12T14:40:38.834Z,101073.31
2023-03-12T14:43:28.835Z,101070.47
2023-03-12T14:46:00.895Z,101067.78
2023-03-12T14:48:33.805Z,101067.16
2023-03-12T14:51:06.515Z,101059.03
2023-03-12T14:53:39.071Z,101047.25
2023-03-12T14:56:16.196Z,101042.06
2023-03-12T14:58:49.370Z,101039.53
2023-03-12T15:01:32.086Z,101040.16
2023-03-12T15:04:09.494Z,101031.69
2023-03-12T15:06:45.782Z,101025.94
2023-03-12T15:09:23.178Z,101024.22
2023-03-12T15:12:08.358Z,101019.31
2023-03-12T15:14:43.704Z,101012.50
2023-03-12T15:17:21.656Z,101009.00
2023-03-12T15:19:55.801Z,101006.13
2023-03-12T15:22:29.001Z,100998.41
2023-03-12T15:25:04.746Z,101001.47
2023-03-12T15:27:35.285Z,100995.16
2023-03-12T15:30:28.036Z,100993.63
2023-03-12T15:33:06.826Z,100987.28
2023-03-12T15:35:59.141Z,100972.66
2023-03-12T15:38:30.897Z,100973.06
2023-03-12T15:41:10.916Z,100964.84
2023-03-12T15:43:45.028Z,100973.66
2023-03-12T15:46:18.175Z,100968.38
2023-03-12T15:48:55.907Z,100961.56
2023-03-12T15:51:33.674Z,100958.44
2023-03-12T15:54:25.366Z,100963.13
2023-03-12T15:56:56.588Z,100958.09
2023-03-12T15:59:28.962Z,100951.69
2023-03-12T16:01:59.204Z,100947.41
2023-03-12T16:04:29.136Z,100942.53
2023-03-12T16:07:03.036Z,100940.31
2023-03-12T16:09:35.025Z,100929.63
2023-03-12T16:12:05.515Z,100931.41
2023-03-12T16:14:37.492Z,100915.84
2023-03-12T16:17:21.275Z,100924.13
2023-03-12T16:19:51.375Z,100920.91
2023-03-12T16:22:23.551Z,100909.31
2023-03-12T16:24:53.750Z,100903.22
2023-03-12T16:27:32.488Z,100901.28
2023-03-12T16:30:03.247Z,100904.84
2023-03-12T16:32:33.501Z,100900.81
2023-03-12T16:35:03.495Z,100894.09
2023-03-12T16:37:33.960Z,100895.84
2023-03-12T16:40:03.797Z,100890.69
2023-03-12T16:42:35.714Z,100892.44
2023-03-12T16:45:06.455Z,100876.38
2023-03-12T16:47:36.959Z,100875.53
2023-03-12T16:50:23.624Z,100862.72
2023-03-12T16:52:54.331Z,100865.19
2023-03-12T16:55:28.622Z,100864.88
2023-03-12T16:58:03.642Z,100871.59
2023-03-12T17:00:36.583Z,100862.91
2023-03-12T17:03:08.291Z,100860.66
2023-03-12T17:05:38.198Z,100862.84
2023-03-12T17:08:08.391Z,100848.66
2023-03-12T17:10:38.194Z,100843.72
2023-03-12T17:13:09.253Z,100845.81
2023-03-12T17:15:39.353Z,100849.06
2023-03-12T17:18:12.993Z,100834.78
2023-03-12T17:20:43.425Z,100830.16
2023-03-12T17:23:13.897Z,100828.41
2023-03-12T17:25:45.555Z,100825.50
2023-03-12T17:28:18.894Z,100829.47
2023-03-12T17:30:48.814Z,100836.38
2023-03-12T17:33:20.069Z,100826.44
2023-03-12T17:36:02.267Z,100823.31
2023-03-12T17:38:32.960Z,100819.09
2023-03-12T17:41:16.511Z,100806.97
2023-03-12T17:43:59.568Z,100804.63
2023-03-12T17:46:31.091Z,100803.44
2023-03-12T17:49:01.627Z,100802.97
2023-03-12T17:51:31.950Z,100798.84
2023-03-12T17:54:01.577Z,100795.59
2023-03-12T17:56:31.437Z,100794.69
2023-03-12T17:59:05.255Z,100790.63
2023-03-12T18:01:36.430Z,100789.81
2023-03-12T18:04:07.275Z,100773.47
2023-03-12T18:06:38.769Z,100785.03
2023-03-12T18:09:08.962Z,100782.06
2023-03-12T18:11:38.876Z,100780.06
2023-03-12T18:14:09.389Z,100774.22
2023-03-12T18:16:40.462Z,100773.47
2023-03-12T18:19:10.785Z,100770.38
2023-03-12T18:21:40.428Z,100778.00
2023-03-12T18:24:14.670Z,100783.00
2023-03-12T18:26:46.421Z,100779.28
2023-03-12T18:29:18.014Z,100783.75
2023-03-12T18:31:49.947Z,100783.38
2023-03-12T18:34:21.840Z,100780.75
2023-03-12T18:36:54.347Z,100779.47
2023-03-12T18:39:26.804Z,100776.19
2023-03-12T18:41:57.598Z,100766.66
2023-03-12T18:44:29.207Z,100777.50
2023-03-12T18:46:59.917Z,100774.22
2023-03-12T18:49:29.881Z,100771.56
2023-03-12T18:52:00.107Z,100773.78
2023-03-12T18:54:30.102Z,100770.16
2023-03-12T18:57:00.424Z,100761.25
2023-03-12T18:59:32.265Z,100767.22
2023-03-12T19:02:02.886Z,100774.06
2023-03-12T19:04:32.858Z,100779.59
2023-03-12T19:07:03.630Z,100775.97
2023-03-12T19:09:34.534Z,100781.78
2023-03-12T19:12:05.275Z,100774.53
2023-03-12T19:14:35.351Z,100763.84
2023-03-12T19:17:06.188Z,100773.78
2023-03-12T19:19:35.950Z,100781.72
2023-03-12T19:22:05.948Z,100761.47
2023-03-12T19:24:36.474Z,100767.66
2023-03-12T19:27:06.246Z,100769.91
2023-03-12T19:29:36.473Z,100767.41
2023-03-12T19:32:06.623Z,100761.25
2023-03-12T19:34:37.198Z,100762.31
2023-03-12T19:37:07.208Z,100765.13
2023-03-12T19:39:38.582Z,100768.63
2023-03-12T19:42:08.690Z,100779.03
2023-03-12T19:44:41.988Z,100768.28
2023-03-12T19:47:13.144Z,100760.00
2023-03-12T19:49:44.969Z,100764.94
2023-03-12T19:52:16.179Z,100776.41
2023-03-12T19:54:54.587Z,100769.44
2023-03-12T19:57:35.323Z,100771.97
2023-03-12T20:00:10.809Z,100764.53
2023-03-12T20:02:42.410Z,100775.34
2023-03-12T20:05:14.209Z,100767.28
2023-03-12T20:07:45.501Z,100772.22
2023-03-12T20:10:16.297Z,100769.53
2023-03-12T20:12:46.821Z,100766.75
2023-03-12T20:15:17.090Z,100766.66
2023-03-12T20:17:47.363Z,100780.53
2023-03-12T20:20:19.031Z,100772.81
2023-03-12T20:22:48.874Z,100775.59
2023-03-12T20:25:19.556Z,100788.03
2023-03-12T20:27:49.748Z,100777.56
2023-03-12T20:30:20.174Z,100781.72
2023-03-12T20:32:51.369Z,100771.88
2023-03-12T20:35:21.075Z,100784.13
2023-03-12T20:37:51.809Z,100779.50
2023-03-12T20:40:21.674Z,100787.66
2023-03-12T20:42:51.912Z,100780.81
2023-03-12T20:45:21.760Z,100777.09
2023-03-12T20:47:51.996Z,100782.41
2023-03-12T20:50:21.983Z,100782.94
2023-03-12T20:52:55.215Z,100779.41
2023-03-12T20:55:25.180Z,100781.81
2023-03-12T20:57:58.555Z,100791.63
2023-03-12T21:00:28.413Z,100794.34
2023-03-12T21:03:00.708Z,100798.63
2023-03-12T21:05:33.138Z,100798.19
2023-03-12T21:08:03.276Z,100806.31
2023-03-12T21:10:36.600Z,100805.78
2023-03-12T21:13:07.009Z,100810.41
2023-03-12T21:15:39.355Z,100813.97
2023-03-12T21:18:09.346Z,100805.66
2023-03-12T21:20:41.349Z,100808.41
2023-03-12T21:23:12.604Z,100813.53
2023-03-12T21:25:44.796Z,100808.59
2023-03-12T21:28:14.955Z,100827.06
2023-03-12T21:30:46.657Z,100823.06
2023-03-12T21:33:16.658Z,100826.22
2023-03-12T21:35:47.012Z,100826.31
2023-03-12T21:38:20.375Z,100828.72
2023-03-12T21:40:50.279Z,100826.09
2023-03-12T21:43:20.711Z,100836.50
2023-03-12T21:45:50.670Z,100834.63
2023-03-12T21:48:20.930Z,100840.06
2023-03-12T21:50:51.260Z,100838.97
2023-03-12T21:53:24.033Z,100837.34
2023-03-12T21:56:00.280Z,100842.69
2023-03-12T21:58:32.123Z,100842.03
2023-03-12T22:01:10.108Z,100851.91
2023-03-12T22:03:41.612Z,100857.47
2023-03-12T22:06:12.480Z,100851.88
2023-03-12T22:08:44.139Z,100861.53
2023-03-12T22:11:14.009Z,100872.09
2023-03-12T22:13:44.637Z,100871.84
2023-03-12T22:16:15.665Z,100877.78
2023-03-12T22:18:47.661Z,100876.34
2023-03-12T22:21:23.178Z,100886.59
2023-03-12T22:23:54.964Z,100884.22
2023-03-12T22:26:27.976Z,100881.66
2023-03-12T22:28:59.871Z,100899.50
2023-03-12T22:31:31.206Z,100901.38
2023-03-12T22:34:01.759Z,100902.34
2023-03-12T22:36:31.746Z,100900.81
2023-03-12T22:39:02.191Z,100898.53
2023-03-12T22:41:32.188Z,100897.81
2023-03-12T22:44:08.800Z,100913.28
2023-03-12T22:46:38.808Z,100915.69
2023-03-12T22:49:08.727Z,100913.00
2023-03-12T22:51:39.067Z,100918.78
2023-03-12T22:54:09.608Z,100921.03
2023-03-12T22:56:41.315Z,100932.81
2023-03-12T22:59:12.140Z,100950.09
2023-03-12T23:01:42.360Z,100954.72
2023-03-12T23:04:15.269Z,100955.97
2023-03-12T23:06:46.786Z,100960.63
2023-03-12T23:09:20.730Z,100959.13
2023-03-12T23:11:51.045Z,100970.78
2023-03-12T23:14:21.139Z,100964.28
2023-03-12T23:16:51.996Z,100967.41
2023-03-12T23:19:21.854Z,100977.09
2023-03-12T23:21:51.618Z,100983.34
2023-03-12T23:24:23.354Z,100988.66
2023-03-12T23:26:54.594Z,100988.22
2023-03-12T23:29:25.035Z,100991.81
2023-03-12T23:31:55.025Z,101000.13
2023-03-12T23:34:25.370Z,101001.25
2023-03-12T23:36:55.607Z,101003.28
2023-03-12T23:39:26.188Z,101010.25
2023-03-12T23:41:57.446Z,101012.19
2023-03-12T23:44:27.927Z,101023.09
2023-03-12T23:46:57.581Z,101023.06
2023-03-12T23:49:27.547Z,101019.44
2023-03-12T23:51:57.852Z,101024.38
2023-03-12T23:54:27.522Z,101019.00
2023-03-12T23:56:57.687Z,101025.94
2023-03-12T23:59:27.979Z,101020.81
